Terminal Aerodrome Forecast
Issued by NWS

Home | Current Version | Previous Version | Text Only | Print | Product List | Glossary On
Versions: 1 2 3 4 5 6 7 8 9 10 11 12 13 14 15 16 17 18
000
FTPA31 PHFO 250535
TAFHMK
TAF
PHMK 250535Z 2506/2606 12012KT 5SM -SHRA SCT015 OVC025
      TEMPO 2506/2510 4SM SHRA BR BKN015
     FM251500 13012KT P6SM VCSH SCT015 BKN035
     FM260000 08011KT P6SM SCT025 BKN045=

USA.gov is the U.S. government's official web portal to all federal, state and local government web resources and services.